sensor_id;sensor_type;location;lat;lon;timestamp;P1;durP1;ratioP1;P2;durP2;ratioP2
31618;SDS011;18230;51.502;7.108;2023-07-31T00:04:22;14.52;;;6.50;;
31618;SDS011;18230;51.502;7.108;2023-07-31T00:09:22;13.50;;;6.55;;
31618;SDS011;18230;51.502;7.108;2023-07-31T00:14:23;11.43;;;5.93;;
31618;SDS011;18230;51.502;7.108;2023-07-31T00:19:23;14.05;;;6.22;;
31618;SDS011;18230;51.502;7.108;2023-07-31T00:24:24;13.50;;;6.53;;
31618;SDS011;18230;51.502;7.108;2023-07-31T00:29:25;17.50;;;7.30;;
31618;SDS011;18230;51.502;7.108;2023-07-31T00:34:26;16.13;;;7.35;;
31618;SDS011;18230;51.502;7.108;2023-07-31T00:39:26;18.08;;;7.65;;
31618;SDS011;18230;51.502;7.108;2023-07-31T00:44:27;19.13;;;8.60;;
31618;SDS011;18230;51.502;7.108;2023-07-31T00:49:28;19.30;;;8.32;;
31618;SDS011;18230;51.502;7.108;2023-07-31T00:54:29;23.45;;;8.65;;
31618;SDS011;18230;51.502;7.108;2023-07-31T00:59:29;19.80;;;8.80;;
31618;SDS011;18230;51.502;7.108;2023-07-31T01:04:30;23.95;;;7.93;;
31618;SDS011;18230;51.502;7.108;2023-07-31T01:15:04;22.90;;;6.90;;
31618;SDS011;18230;51.502;7.108;2023-07-31T01:20:18;22.00;;;6.93;;
31618;SDS011;18230;51.502;7.108;2023-07-31T01:30:33;22.60;;;8.10;;
31618;SDS011;18230;51.502;7.108;2023-07-31T01:35:37;20.63;;;6.72;;
31618;SDS011;18230;51.502;7.108;2023-07-31T01:40:41;20.75;;;6.90;;
31618;SDS011;18230;51.502;7.108;2023-07-31T01:45:42;20.88;;;6.45;;
31618;SDS011;18230;51.502;7.108;2023-07-31T01:50:42;15.23;;;5.53;;
31618;SDS011;18230;51.502;7.108;2023-07-31T01:55:43;19.25;;;6.95;;
31618;SDS011;18230;51.502;7.108;2023-07-31T02:00:44;21.92;;;6.55;;
31618;SDS011;18230;51.502;7.108;2023-07-31T02:05:45;20.73;;;6.07;;
31618;SDS011;18230;51.502;7.108;2023-07-31T02:10:47;21.63;;;6.20;;
31618;SDS011;18230;51.502;7.108;2023-07-31T02:15:50;16.13;;;5.75;;
31618;SDS011;18230;51.502;7.108;2023-07-31T02:20:52;21.70;;;6.05;;
31618;SDS011;18230;51.502;7.108;2023-07-31T02:25:53;20.90;;;5.68;;
31618;SDS011;18230;51.502;7.108;2023-07-31T02:30:54;17.20;;;6.22;;
31618;SDS011;18230;51.502;7.108;2023-07-31T02:35:54;16.40;;;5.60;;
31618;SDS011;18230;51.502;7.108;2023-07-31T02:40:55;17.05;;;5.93;;
31618;SDS011;18230;51.502;7.108;2023-07-31T02:45:56;18.52;;;5.80;;
31618;SDS011;18230;51.502;7.108;2023-07-31T02:50:56;15.90;;;5.18;;
31618;SDS011;18230;51.502;7.108;2023-07-31T02:55:57;17.98;;;5.80;;
31618;SDS011;18230;51.502;7.108;2023-07-31T03:00:58;22.77;;;6.50;;
31618;SDS011;18230;51.502;7.108;2023-07-31T03:05:59;20.65;;;6.00;;
31618;SDS011;18230;51.502;7.108;2023-07-31T03:11:00;20.73;;;6.35;;
31618;SDS011;18230;51.502;7.108;2023-07-31T03:16:00;18.52;;;5.82;;
31618;SDS011;18230;51.502;7.108;2023-07-31T03:21:01;19.73;;;6.22;;
31618;SDS011;18230;51.502;7.108;2023-07-31T03:26:02;17.85;;;6.95;;
31618;SDS011;18230;51.502;7.108;2023-07-31T03:31:07;19.05;;;6.18;;
31618;SDS011;18230;51.502;7.108;2023-07-31T03:36:08;15.85;;;5.63;;
31618;SDS011;18230;51.502;7.108;2023-07-31T03:41:09;20.58;;;6.07;;
31618;SDS011;18230;51.502;7.108;2023-07-31T03:46:10;24.70;;;5.90;;
31618;SDS011;18230;51.502;7.108;2023-07-31T03:51:11;18.65;;;6.05;;
31618;SDS011;18230;51.502;7.108;2023-07-31T03:56:12;17.63;;;5.97;;
31618;SDS011;18230;51.502;7.108;2023-07-31T04:01:12;26.80;;;5.85;;
31618;SDS011;18230;51.502;7.108;2023-07-31T04:06:13;18.40;;;5.85;;
31618;SDS011;18230;51.502;7.108;2023-07-31T04:11:17;16.45;;;5.88;;
31618;SDS011;18230;51.502;7.108;2023-07-31T04:16:18;19.15;;;6.03;;
31618;SDS011;18230;51.502;7.108;2023-07-31T04:21:19;16.98;;;5.22;;
31618;SDS011;18230;51.502;7.108;2023-07-31T04:26:19;12.77;;;5.93;;
31618;SDS011;18230;51.502;7.108;2023-07-31T04:31:20;16.35;;;5.30;;
31618;SDS011;18230;51.502;7.108;2023-07-31T04:36:21;18.15;;;5.78;;
31618;SDS011;18230;51.502;7.108;2023-07-31T04:41:22;14.00;;;4.97;;
31618;SDS011;18230;51.502;7.108;2023-07-31T04:46:22;14.70;;;5.78;;
31618;SDS011;18230;51.502;7.108;2023-07-31T04:51:23;17.55;;;6.00;;
31618;SDS011;18230;51.502;7.108;2023-07-31T04:56:25;16.30;;;5.25;;
31618;SDS011;18230;51.502;7.108;2023-07-31T05:01:25;14.82;;;5.63;;
31618;SDS011;18230;51.502;7.108;2023-07-31T05:06:26;14.23;;;4.97;;
31618;SDS011;18230;51.502;7.108;2023-07-31T05:11:27;16.45;;;5.72;;
31618;SDS011;18230;51.502;7.108;2023-07-31T05:16:27;17.00;;;6.00;;
31618;SDS011;18230;51.502;7.108;2023-07-31T05:21:28;18.08;;;6.00;;
31618;SDS011;18230;51.502;7.108;2023-07-31T05:26:29;17.20;;;5.65;;
31618;SDS011;18230;51.502;7.108;2023-07-31T05:31:29;17.13;;;5.75;;
31618;SDS011;18230;51.502;7.108;2023-07-31T05:36:32;15.15;;;5.53;;
31618;SDS011;18230;51.502;7.108;2023-07-31T05:41:33;16.83;;;6.20;;
31618;SDS011;18230;51.502;7.108;2023-07-31T05:46:34;11.43;;;5.25;;
31618;SDS011;18230;51.502;7.108;2023-07-31T05:51:35;14.63;;;5.72;;
31618;SDS011;18230;51.502;7.108;2023-07-31T05:56:36;13.40;;;4.72;;
31618;SDS011;18230;51.502;7.108;2023-07-31T06:01:36;13.85;;;5.40;;
31618;SDS011;18230;51.502;7.108;2023-07-31T06:06:37;14.18;;;5.95;;
31618;SDS011;18230;51.502;7.108;2023-07-31T06:11:37;11.52;;;5.60;;
31618;SDS011;18230;51.502;7.108;2023-07-31T06:16:38;13.48;;;5.85;;
31618;SDS011;18230;51.502;7.108;2023-07-31T06:21:39;12.40;;;6.20;;
31618;SDS011;18230;51.502;7.108;2023-07-31T06:26:42;20.15;;;6.32;;
31618;SDS011;18230;51.502;7.108;2023-07-31T06:31:42;13.13;;;6.25;;
31618;SDS011;18230;51.502;7.108;2023-07-31T06:36:43;17.20;;;5.97;;
31618;SDS011;18230;51.502;7.108;2023-07-31T06:41:44;18.02;;;6.95;;
31618;SDS011;18230;51.502;7.108;2023-07-31T06:46:45;15.73;;;6.03;;
31618;SDS011;18230;51.502;7.108;2023-07-31T06:51:45;15.73;;;7.38;;
31618;SDS011;18230;51.502;7.108;2023-07-31T06:56:46;14.13;;;5.88;;
31618;SDS011;18230;51.502;7.108;2023-07-31T07:01:47;13.95;;;5.82;;
31618;SDS011;18230;51.502;7.108;2023-07-31T07:06:47;13.13;;;5.88;;
31618;SDS011;18230;51.502;7.108;2023-07-31T07:11:48;14.32;;;5.57;;
31618;SDS011;18230;51.502;7.108;2023-07-31T07:16:52;14.13;;;6.05;;
31618;SDS011;18230;51.502;7.108;2023-07-31T07:21:52;12.55;;;5.57;;
31618;SDS011;18230;51.502;7.108;2023-07-31T07:26:53;11.32;;;5.80;;
31618;SDS011;18230;51.502;7.108;2023-07-31T07:31:54;11.43;;;5.97;;
31618;SDS011;18230;51.502;7.108;2023-07-31T07:36:54;13.82;;;5.60;;
31618;SDS011;18230;51.502;7.108;2023-07-31T07:41:55;10.75;;;5.03;;
31618;SDS011;18230;51.502;7.108;2023-07-31T07:46:56;9.05;;;4.90;;
31618;SDS011;18230;51.502;7.108;2023-07-31T07:51:56;9.48;;;4.90;;
31618;SDS011;18230;51.502;7.108;2023-07-31T07:56:57;10.55;;;5.10;;
31618;SDS011;18230;51.502;7.108;2023-07-31T08:01:58;10.38;;;4.88;;
31618;SDS011;18230;51.502;7.108;2023-07-31T08:06:58;8.65;;;4.80;;
31618;SDS011;18230;51.502;7.108;2023-07-31T08:11:59;11.95;;;4.53;;
31618;SDS011;18230;51.502;7.108;2023-07-31T08:17:03;6.65;;;3.88;;
31618;SDS011;18230;51.502;7.108;2023-07-31T08:22:04;8.15;;;3.95;;
31618;SDS011;18230;51.502;7.108;2023-07-31T08:27:05;6.50;;;3.85;;
31618;SDS011;18230;51.502;7.108;2023-07-31T08:32:06;7.05;;;3.78;;
31618;SDS011;18230;51.502;7.108;2023-07-31T08:37:07;9.07;;;3.47;;
31618;SDS011;18230;51.502;7.108;2023-07-31T08:42:08;7.47;;;3.22;;
31618;SDS011;18230;51.502;7.108;2023-07-31T08:47:09;7.55;;;3.45;;
31618;SDS011;18230;51.502;7.108;2023-07-31T08:52:10;9.57;;;3.53;;
31618;SDS011;18230;51.502;7.108;2023-07-31T08:57:11;8.18;;;3.50;;
31618;SDS011;18230;51.502;7.108;2023-07-31T09:02:13;6.15;;;3.45;;
31618;SDS011;18230;51.502;7.108;2023-07-31T09:07:15;7.97;;;3.90;;
31618;SDS011;18230;51.502;7.108;2023-07-31T09:12:17;10.95;;;2.92;;
31618;SDS011;18230;51.502;7.108;2023-07-31T09:17:28;4.38;;;3.08;;
31618;SDS011;18230;51.502;7.108;2023-07-31T09:22:34;3.45;;;2.53;;
31618;SDS011;18230;51.502;7.108;2023-07-31T09:32:52;4.32;;;2.50;;
31618;SDS011;18230;51.502;7.108;2023-07-31T09:38:05;5.00;;;2.50;;
31618;SDS011;18230;51.502;7.108;2023-07-31T09:43:10;5.43;;;2.58;;
31618;SDS011;18230;51.502;7.108;2023-07-31T09:48:14;6.18;;;2.65;;
31618;SDS011;18230;51.502;7.108;2023-07-31T09:53:16;4.78;;;2.75;;
31618;SDS011;18230;51.502;7.108;2023-07-31T09:58:17;10.32;;;3.08;;
31618;SDS011;18230;51.502;7.108;2023-07-31T10:03:18;4.97;;;2.33;;
31618;SDS011;18230;51.502;7.108;2023-07-31T10:08:20;4.65;;;2.20;;
31618;SDS011;18230;51.502;7.108;2023-07-31T10:13:23;4.50;;;3.05;;
31618;SDS011;18230;51.502;7.108;2023-07-31T10:18:25;4.50;;;2.20;;
31618;SDS011;18230;51.502;7.108;2023-07-31T10:23:26;2.60;;;1.77;;
31618;SDS011;18230;51.502;7.108;2023-07-31T10:28:27;3.55;;;2.03;;
31618;SDS011;18230;51.502;7.108;2023-07-31T10:33:31;7.95;;;2.33;;
31618;SDS011;18230;51.502;7.108;2023-07-31T10:38:32;4.07;;;2.10;;
31618;SDS011;18230;51.502;7.108;2023-07-31T10:43:33;7.20;;;2.78;;
31618;SDS011;18230;51.502;7.108;2023-07-31T10:48:33;7.22;;;3.28;;
31618;SDS011;18230;51.502;7.108;2023-07-31T10:53:35;7.03;;;3.53;;
31618;SDS011;18230;51.502;7.108;2023-07-31T10:58:36;7.60;;;3.45;;
31618;SDS011;18230;51.502;7.108;2023-07-31T11:08:46;8.38;;;3.90;;
31618;SDS011;18230;51.502;7.108;2023-07-31T11:13:51;11.85;;;3.83;;
31618;SDS011;18230;51.502;7.108;2023-07-31T11:18:53;8.70;;;3.90;;
31618;SDS011;18230;51.502;7.108;2023-07-31T11:23:56;6.55;;;3.65;;
31618;SDS011;18230;51.502;7.108;2023-07-31T11:28:57;8.35;;;4.13;;
31618;SDS011;18230;51.502;7.108;2023-07-31T11:34:05;10.63;;;3.65;;
31618;SDS011;18230;51.502;7.108;2023-07-31T11:39:07;14.93;;;3.78;;
31618;SDS011;18230;51.502;7.108;2023-07-31T11:44:09;7.15;;;3.92;;
31618;SDS011;18230;51.502;7.108;2023-07-31T11:49:09;11.40;;;3.63;;
31618;SDS011;18230;51.502;7.108;2023-07-31T11:54:10;5.88;;;3.55;;
31618;SDS011;18230;51.502;7.108;2023-07-31T11:59:12;8.23;;;3.30;;
31618;SDS011;18230;51.502;7.108;2023-07-31T12:04:13;7.88;;;3.22;;
31618;SDS011;18230;51.502;7.108;2023-07-31T12:09:14;5.00;;;2.88;;
31618;SDS011;18230;51.502;7.108;2023-07-31T12:19:26;11.50;;;3.25;;
31618;SDS011;18230;51.502;7.108;2023-07-31T12:24:30;5.68;;;2.60;;
31618;SDS011;18230;51.502;7.108;2023-07-31T12:29:34;6.38;;;3.13;;
31618;SDS011;18230;51.502;7.108;2023-07-31T12:34:41;6.13;;;3.30;;
31618;SDS011;18230;51.502;7.108;2023-07-31T12:39:43;6.68;;;3.45;;
31618;SDS011;18230;51.502;7.108;2023-07-31T12:44:44;7.38;;;3.30;;
31618;SDS011;18230;51.502;7.108;2023-07-31T12:49:45;5.78;;;2.95;;
31618;SDS011;18230;51.502;7.108;2023-07-31T12:54:45;5.78;;;2.72;;
31618;SDS011;18230;51.502;7.108;2023-07-31T12:59:46;4.60;;;2.97;;
31618;SDS011;18230;51.502;7.108;2023-07-31T13:04:47;3.42;;;2.47;;
31618;SDS011;18230;51.502;7.108;2023-07-31T13:09:48;4.03;;;2.20;;
31618;SDS011;18230;51.502;7.108;2023-07-31T13:14:49;4.72;;;2.33;;
31618;SDS011;18230;51.502;7.108;2023-07-31T13:19:50;4.00;;;2.15;;
31618;SDS011;18230;51.502;7.108;2023-07-31T13:24:51;4.13;;;2.08;;
31618;SDS011;18230;51.502;7.108;2023-07-31T13:29:52;4.47;;;2.53;;
31618;SDS011;18230;51.502;7.108;2023-07-31T13:34:53;5.43;;;2.58;;
31618;SDS011;18230;51.502;7.108;2023-07-31T13:39:54;4.45;;;2.90;;
31618;SDS011;18230;51.502;7.108;2023-07-31T13:44:55;4.65;;;2.65;;
31618;SDS011;18230;51.502;7.108;2023-07-31T13:49:58;4.78;;;2.60;;
31618;SDS011;18230;51.502;7.108;2023-07-31T13:54:59;6.90;;;3.50;;
31618;SDS011;18230;51.502;7.108;2023-07-31T13:59:59;4.22;;;2.83;;
31618;SDS011;18230;51.502;7.108;2023-07-31T14:05:00;10.02;;;3.30;;
31618;SDS011;18230;51.502;7.108;2023-07-31T14:10:01;6.68;;;3.30;;
31618;SDS011;18230;51.502;7.108;2023-07-31T14:15:04;6.30;;;3.20;;
31618;SDS011;18230;51.502;7.108;2023-07-31T14:20:05;5.07;;;3.17;;
31618;SDS011;18230;51.502;7.108;2023-07-31T14:25:07;5.40;;;3.63;;
31618;SDS011;18230;51.502;7.108;2023-07-31T14:30:10;9.80;;;3.78;;
31618;SDS011;18230;51.502;7.108;2023-07-31T14:35:11;7.93;;;3.85;;
31618;SDS011;18230;51.502;7.108;2023-07-31T14:40:12;8.63;;;4.03;;
31618;SDS011;18230;51.502;7.108;2023-07-31T14:45:13;6.10;;;3.42;;
31618;SDS011;18230;51.502;7.108;2023-07-31T14:50:14;7.28;;;4.05;;
31618;SDS011;18230;51.502;7.108;2023-07-31T14:55:15;5.65;;;3.42;;
31618;SDS011;18230;51.502;7.108;2023-07-31T15:00:16;7.47;;;3.92;;
31618;SDS011;18230;51.502;7.108;2023-07-31T15:05:17;8.02;;;4.32;;
31618;SDS011;18230;51.502;7.108;2023-07-31T15:10:18;8.50;;;3.92;;
31618;SDS011;18230;51.502;7.108;2023-07-31T15:15:18;8.18;;;4.13;;
31618;SDS011;18230;51.502;7.108;2023-07-31T15:20:19;9.82;;;4.32;;
31618;SDS011;18230;51.502;7.108;2023-07-31T15:25:20;6.25;;;4.00;;
31618;SDS011;18230;51.502;7.108;2023-07-31T15:30:20;5.70;;;3.55;;
31618;SDS011;18230;51.502;7.108;2023-07-31T15:35:22;6.03;;;4.03;;
31618;SDS011;18230;51.502;7.108;2023-07-31T15:40:22;10.35;;;4.20;;
31618;SDS011;18230;51.502;7.108;2023-07-31T15:45:23;5.93;;;3.97;;
31618;SDS011;18230;51.502;7.108;2023-07-31T15:50:24;10.68;;;4.28;;
31618;SDS011;18230;51.502;7.108;2023-07-31T15:55:24;10.85;;;4.63;;
31618;SDS011;18230;51.502;7.108;2023-07-31T16:00:25;6.47;;;4.50;;
31618;SDS011;18230;51.502;7.108;2023-07-31T16:05:26;10.40;;;4.80;;
31618;SDS011;18230;51.502;7.108;2023-07-31T16:10:27;7.60;;;4.57;;
31618;SDS011;18230;51.502;7.108;2023-07-31T16:15:28;10.25;;;4.60;;
31618;SDS011;18230;51.502;7.108;2023-07-31T16:20:29;8.38;;;4.47;;
31618;SDS011;18230;51.502;7.108;2023-07-31T16:25:30;10.95;;;5.05;;
31618;SDS011;18230;51.502;7.108;2023-07-31T16:30:30;8.65;;;4.75;;
31618;SDS011;18230;51.502;7.108;2023-07-31T16:35:31;8.57;;;4.68;;
31618;SDS011;18230;51.502;7.108;2023-07-31T16:40:32;10.88;;;4.93;;
31618;SDS011;18230;51.502;7.108;2023-07-31T16:45:33;12.43;;;4.90;;
31618;SDS011;18230;51.502;7.108;2023-07-31T16:50:33;6.80;;;4.25;;
31618;SDS011;18230;51.502;7.108;2023-07-31T16:55:34;7.75;;;4.38;;
31618;SDS011;18230;51.502;7.108;2023-07-31T17:00:36;11.10;;;4.45;;
31618;SDS011;18230;51.502;7.108;2023-07-31T17:05:37;8.50;;;3.83;;
31618;SDS011;18230;51.502;7.108;2023-07-31T17:10:38;7.75;;;3.58;;
31618;SDS011;18230;51.502;7.108;2023-07-31T17:15:39;9.25;;;5.13;;
31618;SDS011;18230;51.502;7.108;2023-07-31T17:20:40;9.52;;;5.25;;
31618;SDS011;18230;51.502;7.108;2023-07-31T17:25:40;9.52;;;5.25;;
31618;SDS011;18230;51.502;7.108;2023-07-31T17:30:41;7.68;;;4.40;;
31618;SDS011;18230;51.502;7.108;2023-07-31T17:35:42;6.75;;;4.45;;
31618;SDS011;18230;51.502;7.108;2023-07-31T17:40:43;9.15;;;5.10;;
31618;SDS011;18230;51.502;7.108;2023-07-31T17:45:44;7.97;;;5.00;;
31618;SDS011;18230;51.502;7.108;2023-07-31T17:50:51;7.35;;;4.22;;
31618;SDS011;18230;51.502;7.108;2023-07-31T17:55:52;8.05;;;4.30;;
31618;SDS011;18230;51.502;7.108;2023-07-31T18:00:53;5.25;;;3.05;;
31618;SDS011;18230;51.502;7.108;2023-07-31T18:05:54;5.15;;;2.70;;
31618;SDS011;18230;51.502;7.108;2023-07-31T18:10:55;4.25;;;2.85;;
31618;SDS011;18230;51.502;7.108;2023-07-31T18:15:56;5.13;;;2.78;;
31618;SDS011;18230;51.502;7.108;2023-07-31T18:20:57;5.75;;;2.80;;
31618;SDS011;18230;51.502;7.108;2023-07-31T18:25:59;7.55;;;2.47;;
31618;SDS011;18230;51.502;7.108;2023-07-31T18:31:00;4.88;;;2.55;;
31618;SDS011;18230;51.502;7.108;2023-07-31T18:36:02;4.65;;;2.35;;
31618;SDS011;18230;51.502;7.108;2023-07-31T18:41:04;8.15;;;2.75;;
31618;SDS011;18230;51.502;7.108;2023-07-31T18:46:06;2.95;;;1.95;;
31618;SDS011;18230;51.502;7.108;2023-07-31T18:51:07;3.92;;;1.83;;
31618;SDS011;18230;51.502;7.108;2023-07-31T18:56:08;3.85;;;2.10;;
31618;SDS011;18230;51.502;7.108;2023-07-31T19:01:08;2.90;;;1.70;;
31618;SDS011;18230;51.502;7.108;2023-07-31T19:06:09;4.90;;;1.85;;
31618;SDS011;18230;51.502;7.108;2023-07-31T19:11:10;3.00;;;1.70;;
31618;SDS011;18230;51.502;7.108;2023-07-31T19:16:13;2.08;;;1.60;;
31618;SDS011;18230;51.502;7.108;2023-07-31T19:21:14;5.00;;;1.65;;
31618;SDS011;18230;51.502;7.108;2023-07-31T19:26:17;3.65;;;1.45;;
31618;SDS011;18230;51.502;7.108;2023-07-31T19:31:18;5.75;;;1.60;;
31618;SDS011;18230;51.502;7.108;2023-07-31T19:36:19;3.08;;;1.50;;
31618;SDS011;18230;51.502;7.108;2023-07-31T19:41:19;2.03;;;1.40;;
31618;SDS011;18230;51.502;7.108;2023-07-31T19:46:20;3.60;;;1.48;;
31618;SDS011;18230;51.502;7.108;2023-07-31T19:51:21;4.80;;;1.70;;
31618;SDS011;18230;51.502;7.108;2023-07-31T19:56:22;3.92;;;1.30;;
31618;SDS011;18230;51.502;7.108;2023-07-31T20:01:22;1.75;;;1.20;;
31618;SDS011;18230;51.502;7.108;2023-07-31T20:06:25;1.50;;;1.10;;
31618;SDS011;18230;51.502;7.108;2023-07-31T20:11:25;1.77;;;1.00;;
31618;SDS011;18230;51.502;7.108;2023-07-31T20:16:26;2.92;;;1.25;;
31618;SDS011;18230;51.502;7.108;2023-07-31T20:21:27;2.17;;;1.40;;
31618;SDS011;18230;51.502;7.108;2023-07-31T20:26:27;2.10;;;1.27;;
31618;SDS011;18230;51.502;7.108;2023-07-31T20:31:28;4.57;;;1.30;;
31618;SDS011;18230;51.502;7.108;2023-07-31T20:36:28;1.52;;;1.10;;
31618;SDS011;18230;51.502;7.108;2023-07-31T20:41:29;3.63;;;1.60;;
31618;SDS011;18230;51.502;7.108;2023-07-31T20:46:30;1.45;;;1.15;;
31618;SDS011;18230;51.502;7.108;2023-07-31T20:51:31;3.28;;;1.40;;
31618;SDS011;18230;51.502;7.108;2023-07-31T20:56:32;3.17;;;1.10;;
31618;SDS011;18230;51.502;7.108;2023-07-31T21:01:33;2.38;;;1.30;;
31618;SDS011;18230;51.502;7.108;2023-07-31T21:06:33;2.47;;;1.30;;
31618;SDS011;18230;51.502;7.108;2023-07-31T21:11:34;1.85;;;1.00;;
31618;SDS011;18230;51.502;7.108;2023-07-31T21:16:35;3.08;;;1.15;;
31618;SDS011;18230;51.502;7.108;2023-07-31T21:21:36;4.25;;;1.50;;
31618;SDS011;18230;51.502;7.108;2023-07-31T21:26:37;2.08;;;1.10;;
31618;SDS011;18230;51.502;7.108;2023-07-31T21:31:37;5.00;;;1.48;;
31618;SDS011;18230;51.502;7.108;2023-07-31T21:36:38;2.20;;;1.00;;
31618;SDS011;18230;51.502;7.108;2023-07-31T21:41:39;1.38;;;1.17;;
31618;SDS011;18230;51.502;7.108;2023-07-31T21:46:39;2.70;;;1.40;;
31618;SDS011;18230;51.502;7.108;2023-07-31T21:51:40;1.40;;;1.10;;
31618;SDS011;18230;51.502;7.108;2023-07-31T21:56:41;5.18;;;1.48;;
31618;SDS011;18230;51.502;7.108;2023-07-31T22:01:42;1.70;;;0.90;;
31618;SDS011;18230;51.502;7.108;2023-07-31T22:06:42;2.25;;;1.00;;
31618;SDS011;18230;51.502;7.108;2023-07-31T22:11:43;1.58;;;1.20;;
31618;SDS011;18230;51.502;7.108;2023-07-31T22:16:44;4.32;;;1.15;;
31618;SDS011;18230;51.502;7.108;2023-07-31T22:21:44;1.85;;;1.20;;
31618;SDS011;18230;51.502;7.108;2023-07-31T22:26:45;3.10;;;1.25;;
31618;SDS011;18230;51.502;7.108;2023-07-31T22:31:46;1.40;;;1.30;;
31618;SDS011;18230;51.502;7.108;2023-07-31T22:36:46;3.78;;;1.10;;
31618;SDS011;18230;51.502;7.108;2023-07-31T22:41:47;2.80;;;1.17;;
31618;SDS011;18230;51.502;7.108;2023-07-31T22:46:48;4.25;;;1.50;;
31618;SDS011;18230;51.502;7.108;2023-07-31T22:51:48;3.30;;;1.80;;
31618;SDS011;18230;51.502;7.108;2023-07-31T22:56:49;2.05;;;1.67;;
31618;SDS011;18230;51.502;7.108;2023-07-31T23:01:50;2.67;;;1.70;;
31618;SDS011;18230;51.502;7.108;2023-07-31T23:06:50;2.53;;;2.00;;
31618;SDS011;18230;51.502;7.108;2023-07-31T23:11:52;2.40;;;2.20;;
31618;SDS011;18230;51.502;7.108;2023-07-31T23:16:53;2.55;;;2.35;;
31618;SDS011;18230;51.502;7.108;2023-07-31T23:21:54;4.63;;;2.80;;
31618;SDS011;18230;51.502;7.108;2023-07-31T23:26:54;11.70;;;3.58;;
31618;SDS011;18230;51.502;7.108;2023-07-31T23:31:55;4.35;;;3.35;;
31618;SDS011;18230;51.502;7.108;2023-07-31T23:36:56;4.60;;;3.38;;
31618;SDS011;18230;51.502;7.108;2023-07-31T23:41:56;4.07;;;3.53;;
31618;SDS011;18230;51.502;7.108;2023-07-31T23:46:57;3.78;;;3.17;;
31618;SDS011;18230;51.502;7.108;2023-07-31T23:51:58;2.00;;;1.80;;
31618;SDS011;18230;51.502;7.108;2023-07-31T23:56:59;1.90;;;1.70;;
